SAVT/REL METAR and TAF weather

Enter ICAO airport designator
Station Type Date Time Source
SAVT METAR 2019/02/20 19:13 UTC NOAA

SAVT 201913Z 14025KT 9999 BKN034 SCT200 24/03 Q1001


Station Type Date Time Source
SAVT Decoded METAR 2019/02/20 19:13 UTC NOAA

Trelew Aerodrome, Argentina (SAVT) 43-12S 065-16W 43M
Feb 20, 2019 - 02:13 PM EST / 2019.02.20 1913 UTC
Wind: from the SE (140 degrees) at 29 MPH (25 KT):0
Visibility: greater than 7 mile(s):0
Sky conditions: mostly cloudy
Temperature: 75 F (24 C)
Dew Point: 37 F (3 C)
Relative Humidity: 25%
Pressure (altimeter): 29.56 in. Hg (1001 hPa)
ob: SAVT 201913Z 14025KT 9999 BKN034 SCT200 24/03 Q1001
cycle: 19

Station Type Date Time Source
SAVT TAF 2019/02/11 06:33 UTC NOAA

TAF SAVT 110500Z 1106/1206 25010KT 9999 SCT035 SCT080 TX17/1118Z TN08/1110Z
BECMG 1110/1112 21015KT
BECMG 1121/1123 VRB03KT CAVOK


Example: see airport list